台北 の空港の天気 - METARとTAF

台湾桃園国際空港 ( RCTP / TPE ) - 台湾 台北市
飛行場実況気象(Metar)
観測時間06/18 15:30 CST (06/18 07:30 UTC)
風向・風速北北東 4m/s
視程10km以上
天気現象
少しの雲 雲底高度 490m
全天の8割程度の雲 雲底高度 2130m
全天の8割程度の雲 雲底高度 4570m
気温31℃
湿度75%
気圧1003hPa
METARRCTP 180730Z 02007KT 9999 FEW016 BKN070 BKN150 31/26 Q1003 NOSIG RMK A2962
過去の天気等 Google飛行場航空写真 Wunderground天気予報

過去48時間のMETAR

飛行場予報(TAF)
発表時間: 6/18 13:00 CST (6/18 05:00 UTC)
予報対象時間: 18日14時 CST ~ 19日20時 CST
風向・風速北東 3m/s
視程10km以上
少しの雲 雲底高度 460m
全天の8割程度の雲 雲底高度 980m
18日14時 CST ~ 18日20時 CST に一時的に
視程4000m
天気現象しゅう雨
少しの雲 雲底高度 300m
全天の8割程度の雲 雲底高度 460m
少しの積乱雲 雲底高度 610m
全天の8割程度の雲 雲底高度 1220m
19日0時 CST ~ 19日2時 CST に徐々に
風向・風速南南西 7m/s
19日13時 CST ~ 19日19時 CST に一時的に
視程5000m
天気現象
少しの雲 雲底高度 300m
全天の8割程度の雲 雲底高度 550m
全天の8割程度の雲 雲底高度 1220m
TAF RCTP 180500Z 1806/1912 04005KT 9999 FEW015 BKN032
TEMPO 1806/1812 4000 SHRA FEW010 BKN015 FEW020CB BKN040
BECMG 1816/1818 20013KT
TEMPO 1905/1911 5000 RA FEW010 BKN018 BKN040